createdAt,value
2023-03-26T00:01:10.685Z,51.15
2023-03-26T00:03:39.442Z,51.17
2023-03-26T00:06:13.568Z,52.53
2023-03-26T00:08:41.732Z,59.47
2023-03-26T00:11:09.662Z,53.83
2023-03-26T00:13:37.141Z,47.50
2023-03-26T00:16:04.361Z,59.25
2023-03-26T00:18:31.714Z,46.55
2023-03-26T00:20:59.047Z,52.40
2023-03-26T00:23:27.074Z,40.92
2023-03-26T00:25:54.795Z,36.95
2023-03-26T00:28:22.529Z,47.30
2023-03-26T00:30:50.660Z,46.85
2023-03-26T00:33:17.583Z,55.00
2023-03-26T00:35:47.450Z,42.90
2023-03-26T00:38:14.762Z,47.78
2023-03-26T00:40:48.274Z,41.17
2023-03-26T00:43:21.279Z,49.92
2023-03-26T00:45:53.480Z,39.75
2023-03-26T00:48:26.302Z,49.20
2023-03-26T00:50:58.684Z,37.92
2023-03-26T00:53:25.746Z,44.95
2023-03-26T00:55:52.811Z,46.33
2023-03-26T00:58:22.448Z,46.45
2023-03-26T01:00:52.395Z,43.97
2023-03-26T01:03:27.984Z,40.42
2023-03-26T01:08:33.746Z,40.22
2023-03-26T01:11:07.486Z,38.05
2023-03-26T01:13:36.732Z,42.22
2023-03-26T01:16:07.809Z,48.05
2023-03-26T01:18:40.954Z,46.53
2023-03-26T01:21:09.470Z,33.20
2023-03-26T01:23:46.804Z,52.25
2023-03-26T01:26:25.256Z,38.58
2023-03-26T01:28:56.815Z,48.20
2023-03-26T01:31:37.294Z,38.58
2023-03-26T01:34:24.624Z,50.88
2023-03-26T01:36:56.937Z,46.10
2023-03-26T01:39:38.986Z,25.27
2023-03-26T01:42:11.722Z,40.72
2023-03-26T01:44:41.419Z,57.28
2023-03-26T01:47:09.630Z,47.58
2023-03-26T01:49:36.488Z,44.95
2023-03-26T01:52:06.409Z,41.53
2023-03-26T01:54:34.087Z,35.85
2023-03-26T01:57:20.112Z,44.88
2023-03-26T01:59:50.173Z,44.63
2023-03-26T02:02:21.869Z,32.63
2023-03-26T02:05:15.333Z,57.80
2023-03-26T02:07:44.943Z,45.08
2023-03-26T02:10:24.351Z,35.40
2023-03-26T02:12:51.480Z,41.97
2023-03-26T02:15:18.469Z,47.67
2023-03-26T02:17:45.363Z,43.35
2023-03-26T02:20:14.489Z,36.95
2023-03-26T02:22:45.913Z,63.53
2023-03-26T02:25:16.816Z,50.80
2023-03-26T02:27:43.807Z,48.90
2023-03-26T02:30:13.930Z,43.47
2023-03-26T02:32:41.313Z,52.60
2023-03-26T02:35:08.380Z,50.20
2023-03-26T02:37:35.271Z,41.17
2023-03-26T02:40:11.805Z,48.70
2023-03-26T02:42:42.013Z,50.22
2023-03-26T02:45:09.269Z,46.22
2023-03-26T02:47:57.586Z,45.25
2023-03-26T02:51:03.518Z,50.90
2023-03-26T02:53:42.206Z,43.35
2023-03-26T02:56:27.470Z,50.15
2023-03-26T02:59:09.616Z,43.65
2023-03-26T03:01:43.163Z,45.40
2023-03-26T03:04:12.764Z,48.33
2023-03-26T03:06:40.940Z,40.30
2023-03-26T03:09:11.293Z,42.08
2023-03-26T03:11:41.345Z,45.92
2023-03-26T03:14:08.303Z,51.13
2023-03-26T03:16:35.901Z,53.45
2023-03-26T03:19:08.720Z,34.17
2023-03-26T03:21:40.486Z,41.88
2023-03-26T03:24:08.972Z,42.38
2023-03-26T03:26:41.329Z,35.35
2023-03-26T03:29:19.530Z,29.23
2023-03-26T03:31:46.895Z,35.13
2023-03-26T03:34:28.386Z,41.78
2023-03-26T03:36:55.276Z,33.05
2023-03-26T03:39:35.061Z,36.05
2023-03-26T03:42:02.184Z,43.83
2023-03-26T03:44:29.295Z,29.02
2023-03-26T03:46:56.997Z,41.50
2023-03-26T03:49:24.189Z,44.95
2023-03-26T03:51:51.422Z,59.10
2023-03-26T03:54:26.505Z,51.08
2023-03-26T03:57:03.636Z,31.27
2023-03-26T03:59:51.426Z,51.00
2023-03-26T04:02:26.753Z,46.13
2023-03-26T04:04:58.447Z,48.90
2023-03-26T04:07:26.161Z,43.78
2023-03-26T04:10:05.548Z,37.72
2023-03-26T04:12:58.351Z,41.40
2023-03-26T04:16:00.707Z,41.45
2023-03-26T04:18:29.590Z,36.75
2023-03-26T04:21:03.464Z,32.20
2023-03-26T04:23:31.661Z,45.05
2023-03-26T04:26:06.868Z,39.28
2023-03-26T04:28:58.084Z,42.90
2023-03-26T04:31:31.378Z,41.92
2023-03-26T04:34:05.901Z,37.53
2023-03-26T04:36:35.718Z,37.97
2023-03-26T04:39:05.074Z,28.38
2023-03-26T04:41:58.018Z,48.03
2023-03-26T04:44:31.897Z,39.58
2023-03-26T04:47:03.107Z,39.80
2023-03-26T04:49:39.638Z,32.38
2023-03-26T04:52:06.694Z,44.83
2023-03-26T04:55:33.206Z,35.03
2023-03-26T04:58:07.307Z,31.38
2023-03-26T05:01:10.016Z,41.50
2023-03-26T05:03:42.074Z,38.38
2023-03-26T05:06:13.142Z,44.17
2023-03-26T05:08:41.800Z,48.15
2023-03-26T05:11:13.221Z,25.77
2023-03-26T05:13:42.893Z,34.53
2023-03-26T05:16:12.640Z,27.27
2023-03-26T05:18:54.197Z,40.35
2023-03-26T05:21:22.497Z,31.30
2023-03-26T05:23:49.417Z,35.88
2023-03-26T05:26:19.292Z,33.95
2023-03-26T05:28:46.141Z,41.15
2023-03-26T05:31:21.391Z,55.05
2023-03-26T05:33:50.767Z,27.77
2023-03-26T05:36:19.166Z,37.90
2023-03-26T05:39:05.080Z,40.85
2023-03-26T05:42:04.304Z,33.28
2023-03-26T05:44:43.632Z,29.40
2023-03-26T05:47:18.936Z,55.70
2023-03-26T05:49:47.029Z,49.67
2023-03-26T05:52:16.151Z,42.40
2023-03-26T05:55:01.626Z,49.67
2023-03-26T05:57:46.935Z,38.60
2023-03-26T06:00:39.150Z,47.78
2023-03-26T06:03:12.878Z,37.10
2023-03-26T06:06:10.037Z,36.55
2023-03-26T06:08:43.082Z,48.33
2023-03-26T06:11:12.640Z,46.97
2023-03-26T06:13:39.732Z,38.22
2023-03-26T06:16:06.885Z,46.85
2023-03-26T06:18:36.439Z,49.40
2023-03-26T06:21:28.882Z,45.45
2023-03-26T06:24:00.953Z,44.08
2023-03-26T06:26:48.130Z,49.45
2023-03-26T06:29:41.027Z,45.53
2023-03-26T06:32:32.621Z,41.65
2023-03-26T06:35:08.017Z,40.22
2023-03-26T06:37:35.000Z,41.38
2023-03-26T06:40:03.138Z,42.28
2023-03-26T06:43:08.022Z,42.42
2023-03-26T06:45:55.492Z,38.95
2023-03-26T06:48:44.971Z,36.83
2023-03-26T06:51:40.526Z,45.70
2023-03-26T06:54:27.776Z,50.38
2023-03-26T06:57:00.382Z,42.40
2023-03-26T06:59:57.000Z,39.95
2023-03-26T07:02:42.430Z,37.90
2023-03-26T07:05:27.899Z,45.03
2023-03-26T07:08:31.693Z,33.05
2023-03-26T07:11:36.920Z,36.65
2023-03-26T07:14:22.373Z,37.15
2023-03-26T07:17:11.562Z,50.45
2023-03-26T07:20:05.442Z,45.35
2023-03-26T07:22:32.558Z,43.60
2023-03-26T07:24:59.441Z,39.22
2023-03-26T07:27:59.810Z,55.47
2023-03-26T07:30:47.373Z,38.30
2023-03-26T07:33:55.540Z,52.75
2023-03-26T07:36:51.863Z,47.50
2023-03-26T07:39:45.092Z,34.00
2023-03-26T07:42:40.482Z,30.52
2023-03-26T07:45:41.283Z,47.33
2023-03-26T07:48:29.651Z,48.63
2023-03-26T07:51:10.950Z,47.63
2023-03-26T07:54:04.295Z,43.58
2023-03-26T07:57:04.367Z,35.20
2023-03-26T07:59:40.305Z,44.03
2023-03-26T08:02:26.955Z,30.08
2023-03-26T08:05:10.618Z,36.47
2023-03-26T08:08:45.800Z,29.40
2023-03-26T08:11:47.315Z,34.40
2023-03-26T08:14:22.015Z,30.10
2023-03-26T08:16:57.964Z,33.72
2023-03-26T08:19:31.075Z,30.17
2023-03-26T08:22:27.368Z,29.73
2023-03-26T08:24:55.155Z,40.08
2023-03-26T08:27:28.032Z,26.38
2023-03-26T08:29:58.146Z,31.20
2023-03-26T08:32:25.564Z,33.33
2023-03-26T08:34:52.757Z,34.00
2023-03-26T08:37:19.576Z,28.17
2023-03-26T08:39:46.436Z,25.40
2023-03-26T08:42:16.353Z,33.08
2023-03-26T08:45:01.466Z,28.63
2023-03-26T08:47:59.166Z,29.55
2023-03-26T08:50:44.932Z,23.27
2023-03-26T08:53:18.060Z,28.23
2023-03-26T08:55:53.708Z,27.55
2023-03-26T08:58:36.046Z,22.95
2023-03-26T09:01:11.926Z,20.90
2023-03-26T09:03:51.093Z,23.25
2023-03-26T09:06:29.085Z,19.67
2023-03-26T09:08:56.131Z,22.52
2023-03-26T09:11:37.932Z,23.45
2023-03-26T09:14:23.540Z,22.88
2023-03-26T09:17:09.587Z,19.85
2023-03-26T09:19:45.243Z,29.00
2023-03-26T09:22:21.591Z,19.27
2023-03-26T09:27:22.832Z,21.58
2023-03-26T09:30:10.006Z,29.35
2023-03-26T09:32:55.658Z,26.77
2023-03-26T09:35:22.538Z,23.43
2023-03-26T09:37:56.176Z,31.67
2023-03-26T09:40:29.502Z,17.92
2023-03-26T09:42:58.470Z,20.23
2023-03-26T09:45:25.345Z,24.23
2023-03-26T09:48:05.459Z,19.88
2023-03-26T09:50:35.224Z,11.68
2023-03-26T09:53:17.258Z,14.48
2023-03-26T09:55:54.257Z,12.10
2023-03-26T09:58:30.407Z,15.05
2023-03-26T10:01:06.826Z,18.73
2023-03-26T10:03:52.373Z,10.65
2023-03-26T10:06:37.316Z,13.45
2023-03-26T10:09:17.605Z,9.35
2023-03-26T10:11:44.598Z,10.95
2023-03-26T10:14:11.409Z,9.35
2023-03-26T10:16:38.201Z,12.93
2023-03-26T10:19:29.282Z,20.75
2023-03-26T10:21:56.211Z,12.23
2023-03-26T10:24:49.929Z,14.50
2023-03-26T10:27:32.049Z,14.57
2023-03-26T10:30:17.688Z,11.02
2023-03-26T10:32:58.896Z,8.82
2023-03-26T10:35:49.404Z,7.50
2023-03-26T10:38:26.568Z,8.93
2023-03-26T10:43:26.319Z,9.10
2023-03-26T10:46:09.801Z,9.65
2023-03-26T10:48:43.062Z,5.55
2023-03-26T10:51:16.044Z,6.05
2023-03-26T10:53:51.242Z,15.18
2023-03-26T10:56:24.577Z,9.85
2023-03-26T10:58:51.950Z,11.07
2023-03-26T11:01:42.210Z,8.50
2023-03-26T11:04:09.483Z,10.07
2023-03-26T11:06:42.097Z,7.57
2023-03-26T11:09:19.249Z,7.22
2023-03-26T11:11:46.265Z,9.05
2023-03-26T11:14:21.331Z,5.30
2023-03-26T11:16:55.069Z,8.18
2023-03-26T11:19:27.060Z,9.75
2023-03-26T11:22:02.381Z,6.15
2023-03-26T11:25:05.643Z,5.32
2023-03-26T11:27:44.220Z,10.73
2023-03-26T11:30:31.784Z,8.27
2023-03-26T11:33:02.446Z,7.82
2023-03-26T11:35:39.923Z,5.10
2023-03-26T11:38:27.610Z,3.65
2023-03-26T11:40:56.134Z,7.35
2023-03-26T11:43:49.740Z,5.45
2023-03-26T11:46:18.658Z,8.90
2023-03-26T11:48:47.080Z,5.55
2023-03-26T11:51:25.355Z,8.15
2023-03-26T11:53:52.161Z,7.80
2023-03-26T11:56:18.995Z,5.93
2023-03-26T11:58:52.063Z,6.00
2023-03-26T12:01:32.819Z,6.05
2023-03-26T12:04:05.308Z,6.22
2023-03-26T12:06:32.951Z,7.13
2023-03-26T12:08:59.795Z,5.25
2023-03-26T12:11:28.495Z,4.30
2023-03-26T12:13:59.591Z,5.47
2023-03-26T12:16:27.750Z,4.57
2023-03-26T12:19:03.934Z,4.75
2023-03-26T12:21:43.078Z,11.25
2023-03-26T12:24:31.961Z,14.90
2023-03-26T12:27:04.116Z,16.60
2023-03-26T12:29:35.069Z,22.27
2023-03-26T12:32:07.611Z,19.85
2023-03-26T12:34:39.614Z,21.30
2023-03-26T12:37:08.350Z,25.73
2023-03-26T12:40:09.730Z,27.27
2023-03-26T12:44:44.064Z,27.02
2023-03-26T12:45:14.467Z,25.88
2023-03-26T12:47:59.419Z,17.85
2023-03-26T12:50:34.447Z,16.88
2023-03-26T12:53:05.691Z,17.65
2023-03-26T12:55:48.607Z,19.20
2023-03-26T12:58:33.885Z,18.15
2023-03-26T13:01:06.688Z,21.35
2023-03-26T13:03:38.707Z,19.88
2023-03-26T13:06:12.373Z,18.30
2023-03-26T13:08:58.182Z,14.73
2023-03-26T13:11:27.737Z,11.90
2023-03-26T13:13:58.572Z,11.15
2023-03-26T13:16:34.133Z,17.08
2023-03-26T13:19:01.266Z,23.98
2023-03-26T13:21:28.643Z,19.90
2023-03-26T13:24:11.393Z,16.33
2023-03-26T13:26:45.566Z,20.10
2023-03-26T13:29:31.234Z,20.17
2023-03-26T13:32:16.825Z,23.48
2023-03-26T13:34:59.582Z,19.55
2023-03-26T13:37:34.305Z,17.83
2023-03-26T13:40:15.584Z,19.50
2023-03-26T13:42:45.051Z,21.60
2023-03-26T13:45:28.788Z,17.63
2023-03-26T13:47:57.238Z,11.35
2023-03-26T13:50:26.789Z,16.30
2023-03-26T13:53:00.186Z,17.45
2023-03-26T13:55:59.279Z,16.40
2023-03-26T13:58:52.559Z,13.93
2023-03-26T14:01:21.773Z,12.75
2023-03-26T14:04:07.776Z,17.58
2023-03-26T14:06:42.186Z,13.93
2023-03-26T14:09:18.790Z,16.15
2023-03-26T14:11:58.105Z,25.83
2023-03-26T14:14:37.106Z,16.48
2023-03-26T14:17:14.917Z,11.88
2023-03-26T14:19:55.063Z,16.15
2023-03-26T14:22:33.581Z,12.32
2023-03-26T14:25:25.791Z,14.88
2023-03-26T14:27:55.945Z,16.60
2023-03-26T14:30:32.108Z,11.13
2023-03-26T14:35:48.984Z,13.52
2023-03-26T14:38:33.691Z,12.03
2023-03-26T14:41:15.890Z,22.15
2023-03-26T14:43:48.878Z,13.20
2023-03-26T14:46:29.445Z,12.00
2023-03-26T14:48:59.185Z,9.60
2023-03-26T14:51:45.018Z,8.80
2023-03-26T14:54:17.237Z,13.07
2023-03-26T14:56:53.519Z,11.20
2023-03-26T14:59:26.604Z,12.60
2023-03-26T15:02:12.035Z,13.07
2023-03-26T15:04:54.297Z,21.00
2023-03-26T15:07:31.392Z,16.55
2023-03-26T15:10:10.709Z,13.82
2023-03-26T15:12:46.652Z,10.02
2023-03-26T15:15:32.264Z,15.80
2023-03-26T15:18:06.364Z,12.20
2023-03-26T15:20:44.693Z,9.35
2023-03-26T15:23:30.421Z,9.48
2023-03-26T15:25:57.240Z,8.25
2023-03-26T15:28:33.580Z,8.98
2023-03-26T15:31:19.101Z,5.97
2023-03-26T15:33:46.630Z,6.55
2023-03-26T15:36:32.578Z,11.27
2023-03-26T15:39:18.430Z,15.82
2023-03-26T15:41:53.741Z,12.20
2023-03-26T15:44:30.819Z,15.27
2023-03-26T15:46:58.412Z,14.90
2023-03-26T15:49:42.716Z,13.93
2023-03-26T15:52:28.362Z,10.43
2023-03-26T15:55:05.405Z,9.13
2023-03-26T15:57:51.153Z,12.60
2023-03-26T16:00:19.248Z,9.32
2023-03-26T16:02:53.599Z,6.50
2023-03-26T16:05:33.214Z,11.25
2023-03-26T16:08:08.578Z,7.95
2023-03-26T16:10:41.863Z,9.60
2023-03-26T16:13:15.067Z,7.78
2023-03-26T16:15:42.806Z,9.20
2023-03-26T16:18:15.719Z,10.82
2023-03-26T16:20:51.159Z,11.02
2023-03-26T16:23:27.365Z,6.18
2023-03-26T16:25:57.404Z,10.63
2023-03-26T16:28:37.693Z,9.25
2023-03-26T16:31:36.719Z,7.75
2023-03-26T16:34:04.823Z,17.80
2023-03-26T16:36:45.211Z,10.48
2023-03-26T16:39:18.492Z,11.85
2023-03-26T16:41:47.236Z,8.07
2023-03-26T16:44:20.393Z,19.25
2023-03-26T16:47:00.377Z,14.07
2023-03-26T16:49:36.528Z,13.85
2023-03-26T16:52:23.318Z,8.35
2023-03-26T17:00:07.453Z,11.95
2023-03-26T17:02:41.771Z,7.85
2023-03-26T17:05:34.400Z,15.52
2023-03-26T17:08:19.228Z,13.43
2023-03-26T17:11:09.240Z,8.15
2023-03-26T17:13:42.399Z,9.02
2023-03-26T17:16:29.516Z,17.75
2023-03-26T17:19:11.749Z,8.63
2023-03-26T17:22:00.822Z,17.38
2023-03-26T17:24:35.714Z,13.63
2023-03-26T17:27:34.704Z,9.35
2023-03-26T17:30:21.517Z,12.77
2023-03-26T17:37:47.772Z,13.57
2023-03-26T17:40:30.335Z,4.10
2023-03-26T17:43:01.254Z,11.90
2023-03-26T17:45:31.295Z,14.60
2023-03-26T17:48:07.253Z,10.63
2023-03-26T17:50:54.389Z,9.55
2023-03-26T17:53:27.406Z,7.57
2023-03-26T17:55:56.059Z,8.20
2023-03-26T17:58:37.706Z,9.57
2023-03-26T18:01:14.561Z,7.43
2023-03-26T18:03:44.057Z,14.27
2023-03-26T18:06:13.264Z,6.70
2023-03-26T18:08:46.566Z,12.60
2023-03-26T18:11:31.769Z,10.52
2023-03-26T18:14:05.266Z,14.77
2023-03-26T18:16:41.252Z,12.98
2023-03-26T18:19:18.663Z,9.93
2023-03-26T18:21:50.496Z,4.88
2023-03-26T18:24:22.897Z,9.70
2023-03-26T18:27:04.384Z,14.18
2023-03-26T18:29:33.953Z,6.82
2023-03-26T18:32:02.695Z,11.70
2023-03-26T18:34:31.972Z,9.77
2023-03-26T18:36:59.914Z,7.85
2023-03-26T18:39:27.042Z,8.25
2023-03-26T18:41:54.099Z,10.13
2023-03-26T18:44:21.519Z,7.47
2023-03-26T18:46:48.425Z,9.95
2023-03-26T18:49:16.577Z,8.82
2023-03-26T18:51:55.994Z,7.38
2023-03-26T18:54:23.949Z,12.40
2023-03-26T18:56:52.292Z,9.18
2023-03-26T18:59:19.608Z,11.55
2023-03-26T19:01:47.565Z,11.35
2023-03-26T19:04:15.648Z,10.45
2023-03-26T19:06:43.782Z,8.75
2023-03-26T19:09:28.115Z,7.55
2023-03-26T19:14:28.662Z,10.63
2023-03-26T19:16:59.467Z,7.30
2023-03-26T19:19:29.115Z,6.18
2023-03-26T19:21:59.074Z,7.65
2023-03-26T19:24:27.016Z,9.63
2023-03-26T19:26:54.037Z,7.78
2023-03-26T19:29:32.544Z,8.90
2023-03-26T19:32:05.324Z,11.88
2023-03-26T19:34:34.951Z,10.25
2023-03-26T19:37:02.929Z,9.88
2023-03-26T19:39:44.334Z,10.23
2023-03-26T19:42:16.219Z,9.88
2023-03-26T19:44:43.436Z,5.20
2023-03-26T19:47:25.000Z,9.77
2023-03-26T19:50:01.771Z,7.75
2023-03-26T19:52:32.791Z,13.57
2023-03-26T19:55:10.757Z,7.18
2023-03-26T19:57:38.184Z,11.15
2023-03-26T20:00:11.171Z,6.75
2023-03-26T20:02:38.123Z,6.00
2023-03-26T20:05:05.139Z,10.05
2023-03-26T20:07:35.643Z,11.32
2023-03-26T20:10:05.553Z,9.93
2023-03-26T20:12:33.072Z,9.65
2023-03-26T20:15:00.365Z,8.57
2023-03-26T20:17:27.239Z,8.13
2023-03-26T20:19:54.370Z,9.90
2023-03-26T20:22:24.574Z,9.98
2023-03-26T20:24:51.726Z,6.43
2023-03-26T20:27:19.330Z,17.20
2023-03-26T20:29:46.646Z,16.45
2023-03-26T20:32:31.827Z,7.22
2023-03-26T20:34:58.691Z,10.23
2023-03-26T20:37:26.178Z,6.03
2023-03-26T20:39:53.244Z,13.40
2023-03-26T20:42:20.432Z,9.82
2023-03-26T20:44:47.386Z,7.68
2023-03-26T20:47:14.389Z,6.75
2023-03-26T20:49:41.824Z,9.45
2023-03-26T20:52:09.731Z,10.48
2023-03-26T20:54:36.884Z,10.27
2023-03-26T20:57:03.954Z,6.40
2023-03-26T20:59:30.944Z,7.00
2023-03-26T21:01:59.331Z,7.40
2023-03-26T21:04:26.897Z,8.38
2023-03-26T21:07:00.263Z,7.88
2023-03-26T21:09:35.595Z,7.72
2023-03-26T21:12:05.263Z,11.07
2023-03-26T21:14:32.464Z,10.00
2023-03-26T21:16:59.652Z,5.90
2023-03-26T21:19:26.752Z,8.13
2023-03-26T21:21:53.717Z,10.10
2023-03-26T21:24:33.136Z,7.43
2023-03-26T21:27:19.436Z,8.35
2023-03-26T21:29:46.718Z,8.25
2023-03-26T21:32:14.703Z,6.90
2023-03-26T21:34:55.750Z,10.65
2023-03-26T21:37:25.842Z,7.05
2023-03-26T21:39:52.864Z,7.53
2023-03-26T21:42:19.770Z,11.35
2023-03-26T21:44:46.921Z,8.50
2023-03-26T21:47:14.108Z,9.32
2023-03-26T21:49:41.266Z,8.15
2023-03-26T21:52:11.969Z,11.43
2023-03-26T21:54:39.958Z,12.45
2023-03-26T21:57:11.076Z,7.78
2023-03-26T21:59:58.481Z,8.60
2023-03-26T22:02:44.286Z,11.95
2023-03-26T22:05:18.573Z,13.23
2023-03-26T22:07:56.683Z,6.28
2023-03-26T22:10:23.661Z,10.15
2023-03-26T22:12:50.578Z,7.90
2023-03-26T22:15:19.133Z,7.07
2023-03-26T22:17:46.734Z,8.32
2023-03-26T22:20:14.610Z,9.55
2023-03-26T22:22:48.803Z,7.95
2023-03-26T22:25:19.390Z,15.63
2023-03-26T22:27:46.730Z,5.78
2023-03-26T22:30:14.020Z,15.48
2023-03-26T22:32:41.372Z,5.22
2023-03-26T22:35:08.176Z,13.77
2023-03-26T22:37:37.108Z,7.75
2023-03-26T22:40:08.378Z,10.10
2023-03-26T22:42:35.687Z,7.22
2023-03-26T22:45:02.730Z,8.25
2023-03-26T22:47:30.597Z,9.80
2023-03-26T22:49:57.665Z,23.38
2023-03-26T22:52:24.378Z,9.18
2023-03-26T22:54:51.958Z,11.38
2023-03-26T22:57:19.150Z,7.28
2023-03-26T22:59:46.051Z,5.95
2023-03-26T23:02:13.099Z,9.35
2023-03-26T23:04:40.802Z,10.57
2023-03-26T23:07:07.771Z,6.95
2023-03-26T23:09:34.871Z,9.95
2023-03-26T23:12:02.062Z,7.85
2023-03-26T23:14:29.002Z,8.35
2023-03-26T23:16:55.850Z,8.48
2023-03-26T23:19:22.596Z,13.82
2023-03-26T23:21:49.354Z,7.30
2023-03-26T23:24:16.999Z,11.05
2023-03-26T23:26:50.444Z,7.22
2023-03-26T23:29:18.334Z,13.95
2023-03-26T23:31:45.061Z,5.70
2023-03-26T23:34:13.543Z,8.32
2023-03-26T23:36:41.885Z,9.10
2023-03-26T23:39:09.463Z,10.93
2023-03-26T23:41:36.877Z,9.00
2023-03-26T23:44:04.093Z,8.13
2023-03-26T23:46:33.952Z,10.00
2023-03-26T23:49:03.431Z,7.88
2023-03-26T23:51:30.847Z,13.00
2023-03-26T23:53:57.818Z,13.95
2023-03-26T23:56:24.677Z,12.48
2023-03-26T23:58:51.626Z,12.23
